Aviation Digital Data Service (ADDS)

Output produced by METARs form (1741 UTC 03 July 2020)
found at http://aviationweather.gov/metar/data/
 
METAR text: EGLF 031720Z AUTO 22020KT 9999 NCD 17/10 Q1015
Conditions at: EGLF (FARNBOROUGH , GB) observed 1720 UTC 03 July 2020
Temperature: 17.0°C (63°F)
Dewpoint: 10.0°C (50°F) [RH = 63%]
Pressure (altimeter): 29.97 inches Hg (1015.0 mb)
Winds: from the SW (220 degrees) at 23 MPH (20 knots; 10.3 m/s)
Visibility: 6 or more miles (10+ km)
Ceiling: at least 12,000 feet AGL
Clouds: sky clear below 12,000 feet AGL
Weather: no significant weather observed at this time

METAR text: EGLF 031650Z AUTO 23019KT 9999 FEW030/// 18/10 Q1015
Conditions at: EGLF (FARNBOROUGH , GB) observed 1650 UTC 03 July 2020
Temperature: 18.0°C (64°F)
Dewpoint: 10.0°C (50°F) [RH = 59%]
Pressure (altimeter): 29.97 inches Hg (1015.0 mb)
Winds: from the SW (230 degrees) at 22 MPH (19 knots; 9.8 m/s)
Visibility: 6 or more miles (10+ km)
Ceiling: at least 12,000 feet AGL
Clouds: few clouds at 3000 feet AGL
Weather: no significant weather observed at this time

Forecast for: EGLF (FARNBOROUGH , GB)
Text: TAF EGLF 031356Z 0315/0323 23016G26KT 9999 SCT035
Forecast period: 1500 to 1900 UTC 03 July 2020
Forecast type: FROM: standard forecast or significant change
Winds: from the SW (230 degrees) at 18 MPH (16 knots; 8.2 m/s)
gusting to 30 MPH (26 knots; 13.4 m/s)
Visibility: 6 or more miles 10+ km)
Ceiling: at least 12,000 feet AGL
Clouds: scattered clouds at 3500 feet AGL
Weather: no significant weather forecast for this period
Text: PROB30
Forecast period: 1600 to 2300 UTC 03 July 2020
Forecast type: TEMPORARY: The following changes expected for less than half the time period
Visibility: 4 miles (7 km)
Ceiling: unknown
Clouds: missing
Weather: RA  (moderate rain)
Text: TEMPO 0316/0323 7000 RA
Forecast period: 1900 to 2300 UTC 03 July 2020
Forecast type: BECOMING: Conditions expected to become as follows by 2200 UTC 03 July 2020
Winds: from the SW (230 degrees) at 18 MPH (16 knots; 8.2 m/s)
gusting to 30 MPH (26 knots; 13.4 m/s)
Visibility: 6 or more miles 10+ km)
Ceiling: 1200 feet AGL
Clouds: broken clouds at 1200 feet AGL
Weather: no significant weather forecast for this period